sensor_id;sensor_type;location;lat;lon;timestamp;P1;durP1;ratioP1;P2;durP2;ratioP2
7128;SDS011;3606;52.930;8.644;2023-04-15T00:01:29;8.10;;;6.43;;
7128;SDS011;3606;52.930;8.644;2023-04-15T00:03:57;8.20;;;6.13;;
7128;SDS011;3606;52.930;8.644;2023-04-15T00:06:23;11.80;;;6.27;;
7128;SDS011;3606;52.930;8.644;2023-04-15T00:08:49;7.37;;;5.60;;
7128;SDS011;3606;52.930;8.644;2023-04-15T00:11:15;8.77;;;6.27;;
7128;SDS011;3606;52.930;8.644;2023-04-15T00:13:42;7.47;;;6.10;;
7128;SDS011;3606;52.930;8.644;2023-04-15T00:16:08;8.17;;;5.50;;
7128;SDS011;3606;52.930;8.644;2023-04-15T00:18:34;9.47;;;5.80;;
7128;SDS011;3606;52.930;8.644;2023-04-15T00:21:00;8.33;;;6.07;;
7128;SDS011;3606;52.930;8.644;2023-04-15T00:23:26;8.67;;;6.07;;
7128;SDS011;3606;52.930;8.644;2023-04-15T00:25:52;8.90;;;6.50;;
7128;SDS011;3606;52.930;8.644;2023-04-15T00:28:18;10.57;;;6.67;;
7128;SDS011;3606;52.930;8.644;2023-04-15T00:30:44;11.07;;;6.73;;
7128;SDS011;3606;52.930;8.644;2023-04-15T00:33:09;9.70;;;7.43;;
7128;SDS011;3606;52.930;8.644;2023-04-15T00:35:35;11.07;;;7.83;;
7128;SDS011;3606;52.930;8.644;2023-04-15T00:38:01;13.47;;;8.40;;
7128;SDS011;3606;52.930;8.644;2023-04-15T00:40:28;14.90;;;9.00;;
7128;SDS011;3606;52.930;8.644;2023-04-15T00:42:54;12.87;;;9.53;;
7128;SDS011;3606;52.930;8.644;2023-04-15T00:45:20;15.73;;;9.60;;
7128;SDS011;3606;52.930;8.644;2023-04-15T00:47:45;16.47;;;10.40;;
7128;SDS011;3606;52.930;8.644;2023-04-15T00:50:11;12.17;;;9.53;;
7128;SDS011;3606;52.930;8.644;2023-04-15T00:52:38;15.00;;;10.30;;
7128;SDS011;3606;52.930;8.644;2023-04-15T00:55:04;13.60;;;9.53;;
7128;SDS011;3606;52.930;8.644;2023-04-15T00:57:31;11.07;;;8.57;;
7128;SDS011;3606;52.930;8.644;2023-04-15T00:59:57;13.23;;;9.47;;
7128;SDS011;3606;52.930;8.644;2023-04-15T01:02:24;13.77;;;9.73;;
7128;SDS011;3606;52.930;8.644;2023-04-15T01:04:49;15.07;;;8.77;;
7128;SDS011;3606;52.930;8.644;2023-04-15T01:07:16;13.97;;;10.17;;
7128;SDS011;3606;52.930;8.644;2023-04-15T01:09:41;13.50;;;9.90;;
7128;SDS011;3606;52.930;8.644;2023-04-15T01:12:07;15.20;;;9.63;;
7128;SDS011;3606;52.930;8.644;2023-04-15T01:14:36;15.53;;;10.30;;
7128;SDS011;3606;52.930;8.644;2023-04-15T01:17:01;15.87;;;10.13;;
7128;SDS011;3606;52.930;8.644;2023-04-15T01:19:27;15.47;;;10.17;;
7128;SDS011;3606;52.930;8.644;2023-04-15T01:21:53;14.33;;;9.60;;
7128;SDS011;3606;52.930;8.644;2023-04-15T01:24:19;15.70;;;10.47;;
7128;SDS011;3606;52.930;8.644;2023-04-15T01:26:45;12.00;;;9.10;;
7128;SDS011;3606;52.930;8.644;2023-04-15T01:29:11;12.27;;;9.57;;
7128;SDS011;3606;52.930;8.644;2023-04-15T01:31:37;16.03;;;10.67;;
7128;SDS011;3606;52.930;8.644;2023-04-15T01:34:03;15.23;;;10.03;;
7128;SDS011;3606;52.930;8.644;2023-04-15T01:36:28;13.77;;;10.10;;
7128;SDS011;3606;52.930;8.644;2023-04-15T01:38:54;14.70;;;10.07;;
7128;SDS011;3606;52.930;8.644;2023-04-15T01:41:25;14.40;;;10.07;;
7128;SDS011;3606;52.930;8.644;2023-04-15T01:43:51;12.70;;;9.90;;
7128;SDS011;3606;52.930;8.644;2023-04-15T01:46:17;15.07;;;10.47;;
7128;SDS011;3606;52.930;8.644;2023-04-15T01:48:43;14.50;;;9.33;;
7128;SDS011;3606;52.930;8.644;2023-04-15T01:51:08;13.83;;;10.37;;
7128;SDS011;3606;52.930;8.644;2023-04-15T01:53:34;13.30;;;9.70;;
7128;SDS011;3606;52.930;8.644;2023-04-15T01:55:59;12.93;;;9.83;;
7128;SDS011;3606;52.930;8.644;2023-04-15T01:58:25;14.80;;;10.83;;
7128;SDS011;3606;52.930;8.644;2023-04-15T02:00:51;17.47;;;10.03;;
7128;SDS011;3606;52.930;8.644;2023-04-15T02:03:17;15.87;;;11.17;;
7128;SDS011;3606;52.930;8.644;2023-04-15T02:05:43;17.83;;;9.87;;
7128;SDS011;3606;52.930;8.644;2023-04-15T02:08:09;19.97;;;10.40;;
7128;SDS011;3606;52.930;8.644;2023-04-15T02:10:34;15.83;;;9.53;;
7128;SDS011;3606;52.930;8.644;2023-04-15T02:13:00;14.80;;;9.90;;
7128;SDS011;3606;52.930;8.644;2023-04-15T02:15:26;15.10;;;9.63;;
7128;SDS011;3606;52.930;8.644;2023-04-15T02:17:51;15.87;;;10.50;;
7128;SDS011;3606;52.930;8.644;2023-04-15T02:20:19;14.43;;;10.10;;
7128;SDS011;3606;52.930;8.644;2023-04-15T02:22:45;15.10;;;9.87;;
7128;SDS011;3606;52.930;8.644;2023-04-15T02:25:12;15.13;;;10.00;;
7128;SDS011;3606;52.930;8.644;2023-04-15T02:27:38;15.03;;;10.27;;
7128;SDS011;3606;52.930;8.644;2023-04-15T02:30:04;14.90;;;10.87;;
7128;SDS011;3606;52.930;8.644;2023-04-15T02:32:31;15.83;;;10.50;;
7128;SDS011;3606;52.930;8.644;2023-04-15T02:35:00;14.67;;;10.47;;
7128;SDS011;3606;52.930;8.644;2023-04-15T02:37:27;17.50;;;10.37;;
7128;SDS011;3606;52.930;8.644;2023-04-15T02:39:54;16.63;;;11.23;;
7128;SDS011;3606;52.930;8.644;2023-04-15T02:42:20;16.70;;;10.57;;
7128;SDS011;3606;52.930;8.644;2023-04-15T02:44:45;17.40;;;10.77;;
7128;SDS011;3606;52.930;8.644;2023-04-15T02:47:11;17.17;;;11.00;;
7128;SDS011;3606;52.930;8.644;2023-04-15T02:49:37;16.07;;;9.53;;
7128;SDS011;3606;52.930;8.644;2023-04-15T02:52:02;20.53;;;11.20;;
7128;SDS011;3606;52.930;8.644;2023-04-15T02:54:28;13.87;;;10.37;;
7128;SDS011;3606;52.930;8.644;2023-04-15T02:56:54;13.80;;;10.27;;
7128;SDS011;3606;52.930;8.644;2023-04-15T02:59:20;18.33;;;12.10;;
7128;SDS011;3606;52.930;8.644;2023-04-15T03:01:46;17.83;;;11.13;;
7128;SDS011;3606;52.930;8.644;2023-04-15T03:04:11;15.57;;;10.40;;
7128;SDS011;3606;52.930;8.644;2023-04-15T03:06:38;17.00;;;10.33;;
7128;SDS011;3606;52.930;8.644;2023-04-15T03:09:03;15.33;;;10.77;;
7128;SDS011;3606;52.930;8.644;2023-04-15T03:11:29;16.93;;;11.13;;
7128;SDS011;3606;52.930;8.644;2023-04-15T03:13:55;13.27;;;10.50;;
7128;SDS011;3606;52.930;8.644;2023-04-15T03:16:22;14.83;;;10.30;;
7128;SDS011;3606;52.930;8.644;2023-04-15T03:18:48;14.43;;;10.53;;
7128;SDS011;3606;52.930;8.644;2023-04-15T03:21:13;14.80;;;10.90;;
7128;SDS011;3606;52.930;8.644;2023-04-15T03:23:39;16.40;;;11.57;;
7128;SDS011;3606;52.930;8.644;2023-04-15T03:26:05;15.03;;;10.67;;
7128;SDS011;3606;52.930;8.644;2023-04-15T03:28:30;14.63;;;11.10;;
7128;SDS011;3606;52.930;8.644;2023-04-15T03:30:56;16.90;;;11.13;;
7128;SDS011;3606;52.930;8.644;2023-04-15T03:33:22;16.00;;;10.77;;
7128;SDS011;3606;52.930;8.644;2023-04-15T03:35:49;18.67;;;11.40;;
7128;SDS011;3606;52.930;8.644;2023-04-15T03:38:15;16.53;;;11.80;;
7128;SDS011;3606;52.930;8.644;2023-04-15T03:40:41;15.27;;;11.03;;
7128;SDS011;3606;52.930;8.644;2023-04-15T03:43:07;17.10;;;11.50;;
7128;SDS011;3606;52.930;8.644;2023-04-15T03:45:32;19.97;;;12.43;;
7128;SDS011;3606;52.930;8.644;2023-04-15T03:47:58;14.97;;;11.63;;
7128;SDS011;3606;52.930;8.644;2023-04-15T03:50:23;14.10;;;11.13;;
7128;SDS011;3606;52.930;8.644;2023-04-15T03:52:49;18.50;;;12.20;;
7128;SDS011;3606;52.930;8.644;2023-04-15T03:55:15;16.13;;;11.40;;
7128;SDS011;3606;52.930;8.644;2023-04-15T03:57:40;16.87;;;12.10;;
7128;SDS011;3606;52.930;8.644;2023-04-15T04:00:06;18.83;;;11.30;;
7128;SDS011;3606;52.930;8.644;2023-04-15T04:02:35;14.23;;;10.37;;
7128;SDS011;3606;52.930;8.644;2023-04-15T04:05:01;17.20;;;11.50;;
7128;SDS011;3606;52.930;8.644;2023-04-15T04:07:27;16.77;;;11.17;;
7128;SDS011;3606;52.930;8.644;2023-04-15T04:09:52;15.53;;;11.30;;
7128;SDS011;3606;52.930;8.644;2023-04-15T04:12:18;14.57;;;10.67;;
7128;SDS011;3606;52.930;8.644;2023-04-15T04:14:44;14.73;;;11.17;;
7128;SDS011;3606;52.930;8.644;2023-04-15T04:17:09;14.60;;;10.67;;
7128;SDS011;3606;52.930;8.644;2023-04-15T04:19:35;15.30;;;11.20;;
7128;SDS011;3606;52.930;8.644;2023-04-15T04:22:01;15.30;;;11.30;;
7128;SDS011;3606;52.930;8.644;2023-04-15T04:24:26;14.53;;;10.57;;
7128;SDS011;3606;52.930;8.644;2023-04-15T04:26:52;16.47;;;10.20;;
7128;SDS011;3606;52.930;8.644;2023-04-15T04:29:18;16.50;;;10.90;;
7128;SDS011;3606;52.930;8.644;2023-04-15T04:31:44;14.40;;;10.20;;
7128;SDS011;3606;52.930;8.644;2023-04-15T04:34:09;13.43;;;10.17;;
7128;SDS011;3606;52.930;8.644;2023-04-15T04:36:35;17.50;;;10.70;;
7128;SDS011;3606;52.930;8.644;2023-04-15T04:39:01;17.70;;;10.80;;
7128;SDS011;3606;52.930;8.644;2023-04-15T04:41:26;16.40;;;10.93;;
7128;SDS011;3606;52.930;8.644;2023-04-15T04:43:52;16.77;;;10.80;;
7128;SDS011;3606;52.930;8.644;2023-04-15T04:46:18;15.70;;;11.00;;
7128;SDS011;3606;52.930;8.644;2023-04-15T04:48:43;18.43;;;11.67;;
7128;SDS011;3606;52.930;8.644;2023-04-15T04:51:09;17.97;;;11.80;;
7128;SDS011;3606;52.930;8.644;2023-04-15T04:53:35;15.27;;;11.27;;
7128;SDS011;3606;52.930;8.644;2023-04-15T04:56:01;14.40;;;11.07;;
7128;SDS011;3606;52.930;8.644;2023-04-15T04:58:28;17.50;;;12.10;;
7128;SDS011;3606;52.930;8.644;2023-04-15T05:00:54;17.50;;;11.90;;
7128;SDS011;3606;52.930;8.644;2023-04-15T05:03:20;18.50;;;12.47;;
7128;SDS011;3606;52.930;8.644;2023-04-15T05:05:46;21.77;;;12.50;;
7128;SDS011;3606;52.930;8.644;2023-04-15T05:08:13;18.37;;;11.80;;
7128;SDS011;3606;52.930;8.644;2023-04-15T05:10:39;20.97;;;13.17;;
7128;SDS011;3606;52.930;8.644;2023-04-15T05:13:05;20.10;;;12.57;;
7128;SDS011;3606;52.930;8.644;2023-04-15T05:15:30;21.13;;;13.90;;
7128;SDS011;3606;52.930;8.644;2023-04-15T05:17:56;20.83;;;14.23;;
7128;SDS011;3606;52.930;8.644;2023-04-15T05:20:22;20.73;;;12.70;;
7128;SDS011;3606;52.930;8.644;2023-04-15T05:22:48;24.03;;;14.00;;
7128;SDS011;3606;52.930;8.644;2023-04-15T05:25:13;23.17;;;14.70;;
7128;SDS011;3606;52.930;8.644;2023-04-15T05:27:39;23.53;;;14.03;;
7128;SDS011;3606;52.930;8.644;2023-04-15T05:30:05;23.53;;;14.57;;
7128;SDS011;3606;52.930;8.644;2023-04-15T05:32:31;21.80;;;14.40;;
7128;SDS011;3606;52.930;8.644;2023-04-15T05:34:56;21.57;;;14.93;;
7128;SDS011;3606;52.930;8.644;2023-04-15T05:37:22;21.93;;;15.13;;
7128;SDS011;3606;52.930;8.644;2023-04-15T05:39:47;25.60;;;15.70;;
7128;SDS011;3606;52.930;8.644;2023-04-15T05:42:13;24.50;;;15.17;;
7128;SDS011;3606;52.930;8.644;2023-04-15T05:44:39;23.10;;;15.47;;
7128;SDS011;3606;52.930;8.644;2023-04-15T05:47:05;24.63;;;15.87;;
7128;SDS011;3606;52.930;8.644;2023-04-15T05:49:31;24.53;;;15.67;;
7128;SDS011;3606;52.930;8.644;2023-04-15T05:51:57;27.10;;;16.90;;
7128;SDS011;3606;52.930;8.644;2023-04-15T05:54:23;24.70;;;16.33;;
7128;SDS011;3606;52.930;8.644;2023-04-15T05:56:49;28.27;;;17.23;;
7128;SDS011;3606;52.930;8.644;2023-04-15T05:59:14;22.13;;;15.77;;
7128;SDS011;3606;52.930;8.644;2023-04-15T06:01:40;25.07;;;15.83;;
7128;SDS011;3606;52.930;8.644;2023-04-15T06:04:05;23.43;;;16.03;;
7128;SDS011;3606;52.930;8.644;2023-04-15T06:06:31;26.77;;;16.67;;
7128;SDS011;3606;52.930;8.644;2023-04-15T06:08:57;25.57;;;16.07;;
7128;SDS011;3606;52.930;8.644;2023-04-15T06:11:23;26.70;;;17.03;;
7128;SDS011;3606;52.930;8.644;2023-04-15T06:13:48;24.70;;;15.93;;
7128;SDS011;3606;52.930;8.644;2023-04-15T06:16:14;22.93;;;16.80;;
7128;SDS011;3606;52.930;8.644;2023-04-15T06:18:40;23.17;;;15.87;;
7128;SDS011;3606;52.930;8.644;2023-04-15T06:21:05;23.83;;;15.30;;
7128;SDS011;3606;52.930;8.644;2023-04-15T06:23:33;26.73;;;16.97;;
7128;SDS011;3606;52.930;8.644;2023-04-15T06:26:00;26.23;;;16.07;;
7128;SDS011;3606;52.930;8.644;2023-04-15T06:28:26;26.73;;;16.77;;
7128;SDS011;3606;52.930;8.644;2023-04-15T06:30:51;23.43;;;15.93;;
7128;SDS011;3606;52.930;8.644;2023-04-15T06:33:18;23.47;;;15.60;;
7128;SDS011;3606;52.930;8.644;2023-04-15T06:35:43;23.83;;;16.43;;
7128;SDS011;3606;52.930;8.644;2023-04-15T06:38:09;28.47;;;16.47;;
7128;SDS011;3606;52.930;8.644;2023-04-15T06:40:35;29.43;;;16.43;;
7128;SDS011;3606;52.930;8.644;2023-04-15T06:43:00;24.63;;;16.33;;
7128;SDS011;3606;52.930;8.644;2023-04-15T06:45:26;27.70;;;16.63;;
7128;SDS011;3606;52.930;8.644;2023-04-15T06:47:51;27.73;;;16.87;;
7128;SDS011;3606;52.930;8.644;2023-04-15T06:50:17;23.80;;;16.30;;
7128;SDS011;3606;52.930;8.644;2023-04-15T06:52:43;26.77;;;17.17;;
7128;SDS011;3606;52.930;8.644;2023-04-15T06:55:08;24.93;;;16.30;;
7128;SDS011;3606;52.930;8.644;2023-04-15T06:57:34;24.73;;;16.90;;
7128;SDS011;3606;52.930;8.644;2023-04-15T06:59:59;26.80;;;16.67;;
7128;SDS011;3606;52.930;8.644;2023-04-15T07:02:25;26.93;;;17.33;;
7128;SDS011;3606;52.930;8.644;2023-04-15T07:04:51;27.67;;;17.43;;
7128;SDS011;3606;52.930;8.644;2023-04-15T07:07:16;26.83;;;17.20;;
7128;SDS011;3606;52.930;8.644;2023-04-15T07:09:42;23.40;;;15.90;;
7128;SDS011;3606;52.930;8.644;2023-04-15T07:12:08;24.90;;;17.03;;
7128;SDS011;3606;52.930;8.644;2023-04-15T07:14:34;23.40;;;16.63;;
7128;SDS011;3606;52.930;8.644;2023-04-15T07:17:00;22.40;;;14.90;;
7128;SDS011;3606;52.930;8.644;2023-04-15T07:19:26;24.37;;;15.70;;
7128;SDS011;3606;52.930;8.644;2023-04-15T07:21:51;23.77;;;14.83;;
7128;SDS011;3606;52.930;8.644;2023-04-15T07:24:17;24.43;;;15.53;;
7128;SDS011;3606;52.930;8.644;2023-04-15T07:26:44;20.67;;;13.97;;
7128;SDS011;3606;52.930;8.644;2023-04-15T07:29:09;18.20;;;13.57;;
7128;SDS011;3606;52.930;8.644;2023-04-15T07:31:35;24.33;;;13.77;;
7128;SDS011;3606;52.930;8.644;2023-04-15T07:34:02;19.27;;;13.60;;
7128;SDS011;3606;52.930;8.644;2023-04-15T07:36:28;20.17;;;13.47;;
7128;SDS011;3606;52.930;8.644;2023-04-15T07:38:54;20.83;;;13.30;;
7128;SDS011;3606;52.930;8.644;2023-04-15T07:41:20;16.40;;;12.70;;
7128;SDS011;3606;52.930;8.644;2023-04-15T07:43:45;16.47;;;12.03;;
7128;SDS011;3606;52.930;8.644;2023-04-15T07:46:12;16.53;;;12.80;;
7128;SDS011;3606;52.930;8.644;2023-04-15T07:48:38;19.33;;;12.57;;
7128;SDS011;3606;52.930;8.644;2023-04-15T07:51:04;15.60;;;11.20;;
7128;SDS011;3606;52.930;8.644;2023-04-15T07:53:29;16.30;;;12.07;;
7128;SDS011;3606;52.930;8.644;2023-04-15T07:55:56;15.80;;;11.57;;
7128;SDS011;3606;52.930;8.644;2023-04-15T07:58:22;17.57;;;12.13;;
7128;SDS011;3606;52.930;8.644;2023-04-15T08:00:48;18.60;;;12.40;;
7128;SDS011;3606;52.930;8.644;2023-04-15T08:03:13;15.37;;;11.07;;
7128;SDS011;3606;52.930;8.644;2023-04-15T08:05:40;15.43;;;10.50;;
7128;SDS011;3606;52.930;8.644;2023-04-15T08:08:05;13.57;;;10.13;;
7128;SDS011;3606;52.930;8.644;2023-04-15T08:10:31;14.50;;;10.70;;
7128;SDS011;3606;52.930;8.644;2023-04-15T08:12:57;13.43;;;10.30;;
7128;SDS011;3606;52.930;8.644;2023-04-15T08:15:22;15.50;;;10.13;;
7128;SDS011;3606;52.930;8.644;2023-04-15T08:17:48;12.10;;;9.37;;
7128;SDS011;3606;52.930;8.644;2023-04-15T08:20:13;8.93;;;8.03;;
7128;SDS011;3606;52.930;8.644;2023-04-15T08:22:39;12.70;;;8.20;;
7128;SDS011;3606;52.930;8.644;2023-04-15T08:25:05;11.17;;;8.07;;
7128;SDS011;3606;52.930;8.644;2023-04-15T08:27:31;11.93;;;7.77;;
7128;SDS011;3606;52.930;8.644;2023-04-15T08:29:57;8.13;;;6.63;;
7128;SDS011;3606;52.930;8.644;2023-04-15T08:32:22;10.40;;;7.37;;
7128;SDS011;3606;52.930;8.644;2023-04-15T08:34:50;10.93;;;7.30;;
7128;SDS011;3606;52.930;8.644;2023-04-15T08:37:15;7.97;;;6.40;;
7128;SDS011;3606;52.930;8.644;2023-04-15T08:39:41;8.70;;;6.57;;
7128;SDS011;3606;52.930;8.644;2023-04-15T08:42:10;7.97;;;6.00;;
7128;SDS011;3606;52.930;8.644;2023-04-15T08:44:38;8.50;;;6.57;;
7128;SDS011;3606;52.930;8.644;2023-04-15T08:47:06;8.60;;;5.53;;
7128;SDS011;3606;52.930;8.644;2023-04-15T08:49:33;7.47;;;5.97;;
7128;SDS011;3606;52.930;8.644;2023-04-15T08:52:03;5.30;;;4.77;;
7128;SDS011;3606;52.930;8.644;2023-04-15T08:54:29;7.20;;;5.60;;
7128;SDS011;3606;52.930;8.644;2023-04-15T08:56:56;6.07;;;5.30;;
7128;SDS011;3606;52.930;8.644;2023-04-15T08:59:22;6.83;;;5.77;;
7128;SDS011;3606;52.930;8.644;2023-04-15T09:01:48;6.10;;;5.13;;
7128;SDS011;3606;52.930;8.644;2023-04-15T09:04:15;7.53;;;5.93;;
7128;SDS011;3606;52.930;8.644;2023-04-15T09:06:41;7.17;;;5.50;;
7128;SDS011;3606;52.930;8.644;2023-04-15T09:09:07;6.53;;;5.20;;
7128;SDS011;3606;52.930;8.644;2023-04-15T09:11:33;7.60;;;5.70;;
7128;SDS011;3606;52.930;8.644;2023-04-15T09:13:58;6.60;;;5.20;;
7128;SDS011;3606;52.930;8.644;2023-04-15T09:16:24;7.40;;;5.43;;
7128;SDS011;3606;52.930;8.644;2023-04-15T09:18:51;6.40;;;4.87;;
7128;SDS011;3606;52.930;8.644;2023-04-15T09:21:17;5.73;;;4.80;;
7128;SDS011;3606;52.930;8.644;2023-04-15T09:23:58;5.50;;;4.43;;
7128;SDS011;3606;52.930;8.644;2023-04-15T09:26:32;5.57;;;4.10;;
7128;SDS011;3606;52.930;8.644;2023-04-15T09:29:08;4.70;;;4.10;;
7128;SDS011;3606;52.930;8.644;2023-04-15T09:31:38;4.83;;;4.03;;
7128;SDS011;3606;52.930;8.644;2023-04-15T09:34:05;4.87;;;4.37;;
7128;SDS011;3606;52.930;8.644;2023-04-15T09:36:37;5.73;;;4.40;;
7128;SDS011;3606;52.930;8.644;2023-04-15T09:39:10;6.30;;;4.50;;
7128;SDS011;3606;52.930;8.644;2023-04-15T09:41:35;9.53;;;5.30;;
7128;SDS011;3606;52.930;8.644;2023-04-15T09:44:01;5.53;;;4.73;;
7128;SDS011;3606;52.930;8.644;2023-04-15T09:46:40;6.77;;;4.90;;
7128;SDS011;3606;52.930;8.644;2023-04-15T09:49:07;5.33;;;4.27;;
7128;SDS011;3606;52.930;8.644;2023-04-15T09:51:34;4.93;;;4.40;;
7128;SDS011;3606;52.930;8.644;2023-04-15T09:54:00;5.40;;;3.83;;
7128;SDS011;3606;52.930;8.644;2023-04-15T09:56:31;8.00;;;4.23;;
7128;SDS011;3606;52.930;8.644;2023-04-15T09:59:06;6.60;;;4.87;;
7128;SDS011;3606;52.930;8.644;2023-04-15T10:01:35;5.63;;;4.37;;
7128;SDS011;3606;52.930;8.644;2023-04-15T10:04:02;5.37;;;4.30;;
7128;SDS011;3606;52.930;8.644;2023-04-15T10:06:29;6.33;;;4.40;;
7128;SDS011;3606;52.930;8.644;2023-04-15T10:08:55;4.53;;;3.97;;
7128;SDS011;3606;52.930;8.644;2023-04-15T10:11:22;5.57;;;4.10;;
7128;SDS011;3606;52.930;8.644;2023-04-15T10:13:49;6.53;;;4.20;;
7128;SDS011;3606;52.930;8.644;2023-04-15T10:16:16;8.90;;;4.37;;
7128;SDS011;3606;52.930;8.644;2023-04-15T10:18:45;7.30;;;4.30;;
7128;SDS011;3606;52.930;8.644;2023-04-15T10:21:12;6.37;;;4.60;;
7128;SDS011;3606;52.930;8.644;2023-04-15T10:23:42;4.70;;;4.00;;
7128;SDS011;3606;52.930;8.644;2023-04-15T10:26:11;6.20;;;4.10;;
7128;SDS011;3606;52.930;8.644;2023-04-15T10:28:39;6.93;;;3.70;;
7128;SDS011;3606;52.930;8.644;2023-04-15T10:31:05;5.03;;;3.90;;
7128;SDS011;3606;52.930;8.644;2023-04-15T10:33:31;5.13;;;4.10;;
7128;SDS011;3606;52.930;8.644;2023-04-15T10:35:57;5.40;;;4.23;;
7128;SDS011;3606;52.930;8.644;2023-04-15T10:43:54;4.73;;;3.90;;
7128;SDS011;3606;52.930;8.644;2023-04-15T10:49:08;3.60;;;3.30;;
7128;SDS011;3606;52.930;8.644;2023-04-15T10:51:37;6.87;;;4.70;;
7128;SDS011;3606;52.930;8.644;2023-04-15T10:59:31;8.50;;;4.47;;
7128;SDS011;3606;52.930;8.644;2023-04-15T11:02:11;7.77;;;5.53;;
7128;SDS011;3606;52.930;8.644;2023-04-15T11:04:56;5.53;;;4.70;;
7128;SDS011;3606;52.930;8.644;2023-04-15T11:07:39;5.00;;;4.50;;
7128;SDS011;3606;52.930;8.644;2023-04-15T11:12:37;7.67;;;5.83;;
7128;SDS011;3606;52.930;8.644;2023-04-15T11:18:12;8.17;;;6.17;;
7128;SDS011;3606;52.930;8.644;2023-04-15T11:23:18;6.80;;;5.97;;
7128;SDS011;3606;52.930;8.644;2023-04-15T11:25:53;11.83;;;10.10;;
7128;SDS011;3606;52.930;8.644;2023-04-15T11:28:23;8.70;;;6.83;;
7128;SDS011;3606;52.930;8.644;2023-04-15T11:30:51;9.27;;;7.27;;
7128;SDS011;3606;52.930;8.644;2023-04-15T11:33:16;10.53;;;7.67;;
7128;SDS011;3606;52.930;8.644;2023-04-15T11:35:42;9.43;;;6.57;;
7128;SDS011;3606;52.930;8.644;2023-04-15T11:38:08;9.27;;;7.47;;
7128;SDS011;3606;52.930;8.644;2023-04-15T11:40:38;8.83;;;6.93;;
7128;SDS011;3606;52.930;8.644;2023-04-15T11:43:12;8.93;;;7.67;;
7128;SDS011;3606;52.930;8.644;2023-04-15T11:48:18;8.57;;;7.10;;
7128;SDS011;3606;52.930;8.644;2023-04-15T11:50:51;10.97;;;8.10;;
7128;SDS011;3606;52.930;8.644;2023-04-15T11:53:21;10.07;;;7.50;;
7128;SDS011;3606;52.930;8.644;2023-04-15T11:55:48;11.30;;;8.57;;
7128;SDS011;3606;52.930;8.644;2023-04-15T11:58:22;9.73;;;8.33;;
7128;SDS011;3606;52.930;8.644;2023-04-15T12:00:50;14.30;;;8.37;;
7128;SDS011;3606;52.930;8.644;2023-04-15T12:03:25;11.23;;;8.40;;
7128;SDS011;3606;52.930;8.644;2023-04-15T12:09:07;14.07;;;8.50;;
7128;SDS011;3606;52.930;8.644;2023-04-15T12:11:44;9.97;;;8.37;;
7128;SDS011;3606;52.930;8.644;2023-04-15T12:16:47;12.80;;;9.17;;
7128;SDS011;3606;52.930;8.644;2023-04-15T12:19:17;15.87;;;10.40;;
7128;SDS011;3606;52.930;8.644;2023-04-15T12:21:47;13.90;;;9.87;;
7128;SDS011;3606;52.930;8.644;2023-04-15T12:24:13;12.03;;;9.47;;
7128;SDS011;3606;52.930;8.644;2023-04-15T12:29:09;16.57;;;9.90;;
7128;SDS011;3606;52.930;8.644;2023-04-15T12:31:36;16.67;;;10.00;;
7128;SDS011;3606;52.930;8.644;2023-04-15T12:34:15;15.87;;;10.53;;
7128;SDS011;3606;52.930;8.644;2023-04-15T12:36:41;13.30;;;10.20;;
7128;SDS011;3606;52.930;8.644;2023-04-15T12:39:07;16.47;;;10.87;;
7128;SDS011;3606;52.930;8.644;2023-04-15T12:41:33;18.00;;;11.80;;
7128;SDS011;3606;52.930;8.644;2023-04-15T12:43:58;16.40;;;11.77;;
7128;SDS011;3606;52.930;8.644;2023-04-15T12:46:24;22.37;;;13.23;;
7128;SDS011;3606;52.930;8.644;2023-04-15T12:48:51;17.13;;;11.73;;
7128;SDS011;3606;52.930;8.644;2023-04-15T12:51:17;22.53;;;13.63;;
7128;SDS011;3606;52.930;8.644;2023-04-15T12:53:43;19.37;;;12.57;;
7128;SDS011;3606;52.930;8.644;2023-04-15T12:56:08;22.53;;;12.80;;
7128;SDS011;3606;52.930;8.644;2023-04-15T12:58:34;18.97;;;13.17;;
7128;SDS011;3606;52.930;8.644;2023-04-15T13:01:00;20.90;;;14.20;;
7128;SDS011;3606;52.930;8.644;2023-04-15T13:03:26;24.77;;;14.60;;
7128;SDS011;3606;52.930;8.644;2023-04-15T13:05:51;24.33;;;15.13;;
7128;SDS011;3606;52.930;8.644;2023-04-15T13:08:17;24.47;;;15.77;;
7128;SDS011;3606;52.930;8.644;2023-04-15T13:10:42;28.00;;;15.90;;
7128;SDS011;3606;52.930;8.644;2023-04-15T13:13:08;26.53;;;16.27;;
7128;SDS011;3606;52.930;8.644;2023-04-15T13:15:34;29.00;;;16.07;;
7128;SDS011;3606;52.930;8.644;2023-04-15T13:17:59;29.30;;;16.23;;
7128;SDS011;3606;52.930;8.644;2023-04-15T13:20:25;31.43;;;17.37;;
7128;SDS011;3606;52.930;8.644;2023-04-15T13:22:52;27.40;;;17.07;;
7128;SDS011;3606;52.930;8.644;2023-04-15T13:25:18;28.77;;;17.77;;
7128;SDS011;3606;52.930;8.644;2023-04-15T13:27:44;28.60;;;17.67;;
7128;SDS011;3606;52.930;8.644;2023-04-15T13:30:09;29.30;;;18.00;;
7128;SDS011;3606;52.930;8.644;2023-04-15T13:32:35;32.67;;;19.53;;
7128;SDS011;3606;52.930;8.644;2023-04-15T13:35:00;30.27;;;19.37;;
7128;SDS011;3606;52.930;8.644;2023-04-15T13:37:26;36.33;;;20.53;;
7128;SDS011;3606;52.930;8.644;2023-04-15T13:39:53;36.93;;;19.53;;
7128;SDS011;3606;52.930;8.644;2023-04-15T13:42:19;37.77;;;20.27;;
7128;SDS011;3606;52.930;8.644;2023-04-15T13:44:45;31.50;;;18.93;;
7128;SDS011;3606;52.930;8.644;2023-04-15T13:47:11;32.77;;;20.10;;
7128;SDS011;3606;52.930;8.644;2023-04-15T13:49:38;40.77;;;20.57;;
7128;SDS011;3606;52.930;8.644;2023-04-15T13:52:04;34.20;;;20.03;;
7128;SDS011;3606;52.930;8.644;2023-04-15T13:54:30;34.23;;;20.73;;
7128;SDS011;3606;52.930;8.644;2023-04-15T13:56:56;35.93;;;20.27;;
7128;SDS011;3606;52.930;8.644;2023-04-15T13:59:22;35.07;;;21.33;;
7128;SDS011;3606;52.930;8.644;2023-04-15T14:01:47;36.47;;;20.93;;
7128;SDS011;3606;52.930;8.644;2023-04-15T14:04:13;33.90;;;21.27;;
7128;SDS011;3606;52.930;8.644;2023-04-15T14:06:39;36.60;;;22.27;;
7128;SDS011;3606;52.930;8.644;2023-04-15T14:09:05;33.77;;;20.63;;
7128;SDS011;3606;52.930;8.644;2023-04-15T14:11:30;28.30;;;18.20;;
7128;SDS011;3606;52.930;8.644;2023-04-15T14:13:56;24.60;;;18.13;;
7128;SDS011;3606;52.930;8.644;2023-04-15T14:16:21;27.50;;;18.67;;
7128;SDS011;3606;52.930;8.644;2023-04-15T14:18:47;24.97;;;18.00;;
7128;SDS011;3606;52.930;8.644;2023-04-15T14:21:12;25.47;;;17.37;;
7128;SDS011;3606;52.930;8.644;2023-04-15T14:23:38;28.30;;;17.60;;
7128;SDS011;3606;52.930;8.644;2023-04-15T14:26:05;26.00;;;17.83;;
7128;SDS011;3606;52.930;8.644;2023-04-15T14:28:30;28.13;;;19.13;;
7128;SDS011;3606;52.930;8.644;2023-04-15T14:30:56;32.17;;;19.40;;
7128;SDS011;3606;52.930;8.644;2023-04-15T14:33:21;27.00;;;18.53;;
7128;SDS011;3606;52.930;8.644;2023-04-15T14:35:48;30.27;;;18.70;;
7128;SDS011;3606;52.930;8.644;2023-04-15T14:38:14;28.07;;;18.23;;
7128;SDS011;3606;52.930;8.644;2023-04-15T14:40:40;30.97;;;21.17;;
7128;SDS011;3606;52.930;8.644;2023-04-15T14:43:06;31.57;;;20.43;;
7128;SDS011;3606;52.930;8.644;2023-04-15T14:45:31;27.53;;;19.53;;
7128;SDS011;3606;52.930;8.644;2023-04-15T14:47:57;27.43;;;19.87;;
7128;SDS011;3606;52.930;8.644;2023-04-15T14:50:23;30.63;;;20.43;;
7128;SDS011;3606;52.930;8.644;2023-04-15T14:52:49;28.60;;;19.17;;
7128;SDS011;3606;52.930;8.644;2023-04-15T14:55:14;33.80;;;21.03;;
7128;SDS011;3606;52.930;8.644;2023-04-15T14:57:40;27.80;;;19.37;;
7128;SDS011;3606;52.930;8.644;2023-04-15T15:00:07;26.50;;;19.57;;
7128;SDS011;3606;52.930;8.644;2023-04-15T15:02:34;25.67;;;18.33;;
7128;SDS011;3606;52.930;8.644;2023-04-15T15:05:00;26.80;;;19.20;;
7128;SDS011;3606;52.930;8.644;2023-04-15T15:07:26;27.93;;;18.80;;
7128;SDS011;3606;52.930;8.644;2023-04-15T15:09:52;30.03;;;19.83;;
7128;SDS011;3606;52.930;8.644;2023-04-15T15:12:18;28.60;;;19.20;;
7128;SDS011;3606;52.930;8.644;2023-04-15T15:14:46;29.27;;;19.00;;
7128;SDS011;3606;52.930;8.644;2023-04-15T15:17:12;27.97;;;20.27;;
7128;SDS011;3606;52.930;8.644;2023-04-15T15:19:38;27.70;;;20.30;;
7128;SDS011;3606;52.930;8.644;2023-04-15T15:22:03;34.47;;;21.27;;
7128;SDS011;3606;52.930;8.644;2023-04-15T15:24:29;30.27;;;19.37;;